ECO9994 SBJR-SBRJ
Flight info
| Callsign | ECO9994 |
|---|---|
| Flight time | 0h 22m |
| Altitude | 3000 |
| Route | DCT |
| Aircraft | C172/L-SFG/C |
Departure
| Time | 2026-05-01 12:28 |
|---|---|
| Airport | Jacarepaguá - Roberto Marinho Airport (SBJR) |
Arrival
| Time | 2026-05-01 12:50 |
|---|---|
| Airport | Santos Dumont Airport (SBRJ) |
| Time | Latitude | Longitude | Altitude | Speed | Heading |
|---|---|---|---|---|---|
| 2026-05-01 12:19 | -22.98805 | -43.37103 | 15 ft | 0 kts | 212° |
| 2026-05-01 12:23 | -22.98807 | -43.37104 | 15 ft | 0 kts | 212° |
| 2026-05-01 12:23 | -22.98814 | -43.37109 | 15 ft | 1 kts | 212° |
| 2026-05-01 12:23 | -22.98823 | -43.37117 | 15 ft | 3 kts | 222° |
| 2026-05-01 12:24 | -22.98832 | -43.37121 | 14 ft | 2 kts | 335° |
| 2026-05-01 12:24 | -22.98826 | -43.37141 | 14 ft | 5 kts | 250° |
| 2026-05-01 12:24 | -22.98840 | -43.37148 | 14 ft | 5 kts | 156° |
| 2026-05-01 12:24 | -22.98888 | -43.37139 | 15 ft | 9 kts | 186° |
| 2026-05-01 12:25 | -22.98974 | -43.37143 | 16 ft | 15 kts | 190° |
| 2026-05-01 12:25 | -22.99050 | -43.37151 | 17 ft | 0 kts | 181° |
| 2026-05-01 12:26 | -22.99066 | -43.37152 | 16 ft | 2 kts | 226° |
| 2026-05-01 12:26 | -22.99068 | -43.37242 | 15 ft | 4 kts | 354° |
| 2026-05-01 12:26 | -22.99064 | -43.37242 | 15 ft | 0 kts | 357° |
| 2026-05-01 12:27 | -22.98889 | -43.37226 | 15 ft | 53 kts | 1° |
| 2026-05-01 12:27 | -22.98052 | -43.37161 | 279 ft | 64 kts | 21° |
| 2026-05-01 12:28 | -22.97630 | -43.36240 | 508 ft | 82 kts | 96° |
| 2026-05-01 12:28 | -22.97681 | -43.35611 | 690 ft | 86 kts | 94° |
| 2026-05-01 12:28 | -22.97555 | -43.34327 | 1082 ft | 89 kts | 79° |
| 2026-05-01 12:29 | -22.97394 | -43.33669 | 1286 ft | 89 kts | 75° |
| 2026-05-01 12:29 | -22.97203 | -43.33024 | 1487 ft | 90 kts | 73° |
| 2026-05-01 12:29 | -22.96774 | -43.31752 | 1881 ft | 90 kts | 71° |
| 2026-05-01 12:30 | -22.96404 | -43.30740 | 2450 ft | 56 kts | 69° |
| 2026-05-01 12:30 | -22.96367 | -43.30328 | 2582 ft | 52 kts | 121° |
| 2026-05-01 12:30 | -22.96490 | -43.29931 | 2673 ft | 56 kts | 117° |
| 2026-05-01 12:31 | -22.96696 | -43.29593 | 2778 ft | 57 kts | 144° |
| 2026-05-01 12:31 | -22.96933 | -43.29288 | 2919 ft | 54 kts | 134° |
| 2026-05-01 12:31 | -22.97263 | -43.29120 | 3043 ft | 52 kts | 180° |
| 2026-05-01 12:31 | -22.97636 | -43.29100 | 3172 ft | 52 kts | 181° |
| 2026-05-01 12:32 | -22.97994 | -43.29189 | 3287 ft | 54 kts | 221° |
| 2026-05-01 12:32 | -22.98084 | -43.30402 | 3159 ft | 113 kts | 301° |
| 2026-05-01 12:32 | -22.97419 | -43.30903 | 3148 ft | 125 kts | 345° |
| 2026-05-01 12:33 | -22.96552 | -43.30772 | 3143 ft | 130 kts | 28° |
| 2026-05-01 12:33 | -22.95979 | -43.30027 | 3165 ft | 131 kts | 69° |
| 2026-05-01 12:33 | -22.95687 | -43.29064 | 3151 ft | 135 kts | 73° |
| 2026-05-01 12:33 | -22.95389 | -43.28100 | 3146 ft | 135 kts | 71° |
| 2026-05-01 12:34 | -22.95057 | -43.27131 | 3152 ft | 135 kts | 70° |
| 2026-05-01 12:34 | -22.94714 | -43.26182 | 3146 ft | 135 kts | 69° |
| 2026-05-01 12:34 | -22.94365 | -43.25236 | 3144 ft | 132 kts | 69° |
| 2026-05-01 12:34 | -22.94023 | -43.24320 | 3144 ft | 130 kts | 69° |
| 2026-05-01 12:35 | -22.93686 | -43.23420 | 3144 ft | 127 kts | 69° |
| 2026-05-01 12:35 | -22.93354 | -43.22532 | 3144 ft | 125 kts | 69° |
| 2026-05-01 12:35 | -22.93026 | -43.21656 | 3145 ft | 124 kts | 69° |
| 2026-05-01 12:35 | -22.92701 | -43.20790 | 3145 ft | 123 kts | 69° |
| 2026-05-01 12:36 | -22.92377 | -43.19925 | 3145 ft | 123 kts | 69° |
| 2026-05-01 12:36 | -22.92057 | -43.19069 | 3145 ft | 123 kts | 69° |
| 2026-05-01 12:36 | -22.91735 | -43.18212 | 3145 ft | 122 kts | 69° |
| 2026-05-01 12:36 | -22.91411 | -43.17347 | 3145 ft | 122 kts | 69° |
| 2026-05-01 12:37 | -22.91091 | -43.16495 | 3145 ft | 122 kts | 69° |
| 2026-05-01 12:37 | -22.90771 | -43.15639 | 3123 ft | 121 kts | 69° |
| 2026-05-01 12:37 | -22.90453 | -43.14786 | 2996 ft | 122 kts | 69° |
| 2026-05-01 12:37 | -22.90125 | -43.13926 | 2869 ft | 122 kts | 66° |
| 2026-05-01 12:38 | -22.89678 | -43.13137 | 2742 ft | 123 kts | 49° |
| 2026-05-01 12:38 | -22.88962 | -43.12636 | 2608 ft | 123 kts | 12° |
| 2026-05-01 12:38 | -22.88150 | -43.12774 | 2477 ft | 120 kts | 328° |
| 2026-05-01 12:38 | -22.87625 | -43.13452 | 2328 ft | 118 kts | 294° |
| 2026-05-01 12:39 | -22.87478 | -43.14317 | 2170 ft | 117 kts | 257° |
| 2026-05-01 12:39 | -22.87909 | -43.15048 | 2016 ft | 115 kts | 221° |
| 2026-05-01 12:39 | -22.88543 | -43.15592 | 1864 ft | 114 kts | 216° |
| 2026-05-01 12:39 | -22.89222 | -43.16021 | 1709 ft | 113 kts | 195° |
| 2026-05-01 12:40 | -22.90001 | -43.16183 | 1557 ft | 112 kts | 189° |
| 2026-05-01 12:40 | -22.90772 | -43.16311 | 1406 ft | 112 kts | 188° |
| 2026-05-01 12:40 | -22.91523 | -43.16432 | 1349 ft | 104 kts | 188° |
| 2026-05-01 12:40 | -22.92212 | -43.16544 | 1341 ft | 95 kts | 188° |
| 2026-05-01 12:41 | -22.92845 | -43.16645 | 1342 ft | 88 kts | 188° |
| 2026-05-01 12:41 | -22.93440 | -43.16741 | 1342 ft | 84 kts | 188° |
| 2026-05-01 12:41 | -22.94004 | -43.16832 | 1343 ft | 82 kts | 188° |
| 2026-05-01 12:41 | -22.94571 | -43.16922 | 1345 ft | 82 kts | 188° |
| 2026-05-01 12:42 | -22.95140 | -43.17014 | 1345 ft | 82 kts | 188° |
| 2026-05-01 12:42 | -22.95716 | -43.17057 | 1337 ft | 83 kts | 171° |
| 2026-05-01 12:42 | -22.96185 | -43.16713 | 1350 ft | 84 kts | 125° |
| 2026-05-01 12:42 | -22.96291 | -43.16082 | 1342 ft | 88 kts | 81° |
| 2026-05-01 12:43 | -22.96081 | -43.15453 | 1346 ft | 89 kts | 69° |
| 2026-05-01 12:43 | -22.95825 | -43.14835 | 1346 ft | 91 kts | 64° |
| 2026-05-01 12:43 | -22.95328 | -43.14394 | 1347 ft | 95 kts | 18° |
| 2026-05-01 12:43 | -22.94663 | -43.14397 | 1348 ft | 97 kts | 348° |
| 2026-05-01 12:44 | -22.94001 | -43.14550 | 1347 ft | 98 kts | 346° |
| 2026-05-01 12:44 | -22.93325 | -43.14719 | 1346 ft | 100 kts | 346° |
| 2026-05-01 12:44 | -22.91957 | -43.15060 | 1346 ft | 101 kts | 346° |
| 2026-05-01 12:45 | -22.90561 | -43.15292 | 1344 ft | 102 kts | 14° |
| 2026-05-01 12:45 | -22.89927 | -43.14941 | 1345 ft | 102 kts | 40° |
| 2026-05-01 12:45 | -22.89392 | -43.14425 | 1345 ft | 102 kts | 44° |
| 2026-05-01 12:46 | -22.88866 | -43.13896 | 1345 ft | 102 kts | 44° |
| 2026-05-01 12:46 | -22.88341 | -43.13365 | 1345 ft | 102 kts | 44° |
| 2026-05-01 12:46 | -22.87814 | -43.12830 | 1342 ft | 102 kts | 44° |
| 2026-05-01 12:46 | -22.87294 | -43.12302 | 1345 ft | 102 kts | 44° |
| 2026-05-01 12:47 | -22.86696 | -43.11897 | 1342 ft | 101 kts | 12° |
| 2026-05-01 12:47 | -22.86020 | -43.12018 | 1343 ft | 97 kts | 327° |
| 2026-05-01 12:47 | -22.85629 | -43.12575 | 1344 ft | 92 kts | 282° |
| 2026-05-01 12:47 | -22.85707 | -43.13232 | 1345 ft | 88 kts | 238° |
| 2026-05-01 12:48 | -22.86153 | -43.13680 | 1346 ft | 86 kts | 213° |
| 2026-05-01 12:48 | -22.86661 | -43.14032 | 1345 ft | 86 kts | 211° |
| 2026-05-01 12:48 | -22.87169 | -43.14372 | 1335 ft | 87 kts | 211° |
| 2026-05-01 12:48 | -22.87742 | -43.14821 | 1074 ft | 108 kts | 221° |
| 2026-05-01 12:49 | -22.88274 | -43.15418 | 864 ft | 115 kts | 225° |
| 2026-05-01 12:49 | -22.88774 | -43.15981 | 887 ft | 83 kts | 223° |
| 2026-05-01 12:49 | -22.89220 | -43.16354 | 577 ft | 83 kts | 208° |
| 2026-05-01 12:49 | -22.89760 | -43.16484 | 345 ft | 72 kts | 176° |
| 2026-05-01 12:50 | -22.90235 | -43.16410 | 135 ft | 67 kts | 174° |
| 2026-05-01 12:50 | -22.90648 | -43.16394 | 31 ft | 49 kts | 178° |
| 2026-05-01 12:50 | -22.90942 | -43.16374 | 18 ft | 34 kts | 174° |
| 2026-05-01 12:50 | -22.91146 | -43.16364 | 18 ft | 25 kts | 181° |
| 2026-05-01 12:51 | -22.91289 | -43.16352 | 20 ft | 16 kts | 182° |
| 2026-05-01 12:51 | -22.91341 | -43.16402 | 21 ft | 6 kts | 265° |
| 2026-05-01 12:51 | -22.91340 | -43.16449 | 22 ft | 3 kts | 266° |
| 2026-05-01 12:52 | -22.91327 | -43.16452 | 22 ft | 4 kts | 358° |
| 2026-05-01 12:52 | -22.91195 | -43.16504 | 21 ft | 16 kts | 271° |
| 2026-05-01 12:52 | -22.91201 | -43.16600 | 23 ft | 0 kts | 265° |